createdAt,value
2023-01-30T00:03:02.389Z,100417.59
2023-01-30T00:06:05.806Z,100417.09
2023-01-30T00:09:13.877Z,100408.88
2023-01-30T00:12:17.133Z,100416.56
2023-01-30T00:15:20.031Z,100415.78
2023-01-30T00:18:23.543Z,100406.81
2023-01-30T00:21:26.552Z,100414.19
2023-01-30T00:24:30.578Z,100407.84
2023-01-30T00:27:33.625Z,100410.50
2023-01-30T00:30:38.852Z,100404.69
2023-01-30T00:33:41.813Z,100407.94
2023-01-30T00:36:46.610Z,100406.31
2023-01-30T00:39:52.252Z,100399.41
2023-01-30T00:43:14.601Z,100399.97
2023-01-30T00:46:41.559Z,100391.72
2023-01-30T00:49:45.815Z,100390.13
2023-01-30T00:52:48.735Z,100387.97
2023-01-30T00:55:55.043Z,100387.50
2023-01-30T00:58:57.983Z,100387.19
2023-01-30T01:02:01.337Z,100397.56
2023-01-30T01:05:04.650Z,100388.50
2023-01-30T01:08:08.030Z,100390.59
2023-01-30T01:11:11.049Z,100387.44
2023-01-30T01:14:14.350Z,100392.19
2023-01-30T01:17:17.369Z,100385.00
2023-01-30T01:20:22.368Z,100372.28
2023-01-30T01:23:25.279Z,100367.50
2023-01-30T01:26:28.790Z,100360.06
2023-01-30T01:29:32.939Z,100356.59
2023-01-30T01:32:36.188Z,100356.88
2023-01-30T01:35:43.826Z,100346.00
2023-01-30T01:38:47.155Z,100336.94
2023-01-30T01:41:51.654Z,100334.34
2023-01-30T01:45:17.126Z,100322.41
2023-01-30T01:48:47.574Z,100321.38
2023-01-30T01:51:53.812Z,100304.69
2023-01-30T01:55:00.420Z,100294.13
2023-01-30T01:58:09.295Z,100287.25
2023-01-30T02:01:12.377Z,100290.41
2023-01-30T02:04:36.165Z,100286.66
2023-01-30T02:07:51.037Z,100277.94
2023-01-30T02:11:18.717Z,100278.41
2023-01-30T02:14:22.245Z,100276.56
2023-01-30T02:17:26.852Z,100282.97
2023-01-30T02:20:52.792Z,100269.97
2023-01-30T02:24:21.391Z,100264.41
2023-01-30T02:27:36.469Z,100253.03
2023-01-30T02:31:27.548Z,100244.28
2023-01-30T02:34:37.064Z,100247.19
2023-01-30T02:37:58.682Z,100242.72
2023-01-30T02:41:12.965Z,100243.50
2023-01-30T02:44:20.698Z,100236.06
2023-01-30T02:47:34.449Z,100237.91
2023-01-30T02:50:48.214Z,100225.16
2023-01-30T02:53:51.901Z,100229.19
2023-01-30T02:56:58.879Z,100223.09
2023-01-30T03:00:04.284Z,100213.78
2023-01-30T03:03:11.143Z,100207.72
2023-01-30T03:06:59.917Z,100206.66
2023-01-30T03:10:09.215Z,100216.44
2023-01-30T03:13:49.678Z,100209.81
2023-01-30T03:16:55.555Z,100207.97
2023-01-30T03:19:59.301Z,100200.00
2023-01-30T03:23:02.288Z,100195.50
2023-01-30T03:26:07.327Z,100197.31
2023-01-30T03:29:10.635Z,100194.94
2023-01-30T03:32:13.931Z,100193.06
2023-01-30T03:35:18.333Z,100199.13
2023-01-30T03:38:23.281Z,100190.97
2023-01-30T03:41:26.509Z,100187.31
2023-01-30T03:44:30.130Z,100184.44
2023-01-30T03:47:33.130Z,100178.34
2023-01-30T03:50:36.851Z,100174.69
2023-01-30T03:53:39.803Z,100165.38
2023-01-30T03:56:43.126Z,100159.28
2023-01-30T03:59:46.337Z,100158.25
2023-01-30T04:02:50.500Z,100164.03
2023-01-30T04:05:53.875Z,100160.59
2023-01-30T04:08:57.260Z,100166.19
2023-01-30T04:12:01.297Z,100164.84
2023-01-30T04:15:05.739Z,100153.97
2023-01-30T04:18:11.750Z,100149.50
2023-01-30T04:21:17.090Z,100147.88
2023-01-30T04:24:21.254Z,100148.44
2023-01-30T04:27:26.392Z,100143.97
2023-01-30T04:30:32.364Z,100141.31
2023-01-30T04:33:40.146Z,100139.50
2023-01-30T04:36:43.819Z,100135.50
2023-01-30T04:39:48.811Z,100132.06
2023-01-30T04:42:52.154Z,100133.38
2023-01-30T04:45:58.434Z,100136.81
2023-01-30T04:49:02.182Z,100134.94
2023-01-30T04:52:05.525Z,100126.97
2023-01-30T04:55:09.141Z,100134.69
2023-01-30T04:58:12.187Z,100119.88
2023-01-30T05:01:25.709Z,100118.78
2023-01-30T05:04:29.726Z,100117.72
2023-01-30T05:07:32.965Z,100120.38
2023-01-30T05:10:35.952Z,100116.13
2023-01-30T05:13:39.293Z,100110.03
2023-01-30T05:16:42.389Z,100103.16
2023-01-30T05:19:45.619Z,100104.47
2023-01-30T05:22:48.551Z,100108.19
2023-01-30T05:25:51.744Z,100098.41
2023-01-30T05:28:56.310Z,100095.72
2023-01-30T05:31:59.554Z,100097.59
2023-01-30T05:35:02.565Z,100102.88
2023-01-30T05:38:05.961Z,100095.22
2023-01-30T05:41:10.303Z,100097.09
2023-01-30T05:44:13.543Z,100103.47
2023-01-30T05:47:17.568Z,100106.94
2023-01-30T05:50:21.428Z,100094.75
2023-01-30T05:53:26.911Z,100090.81
2023-01-30T05:56:33.388Z,100083.66
2023-01-30T05:59:36.536Z,100085.50
2023-01-30T06:02:39.953Z,100087.91
2023-01-30T06:05:43.453Z,100083.66
2023-01-30T06:08:46.514Z,100080.78
2023-01-30T06:11:52.513Z,100079.44
2023-01-30T06:14:56.351Z,100075.22
2023-01-30T06:17:59.627Z,100072.03
2023-01-30T06:21:02.885Z,100053.22
2023-01-30T06:24:06.551Z,100065.41
2023-01-30T06:27:09.503Z,100052.94
2023-01-30T06:30:13.675Z,100062.72
2023-01-30T06:33:16.844Z,100055.03
2023-01-30T06:36:21.209Z,100055.56
2023-01-30T06:39:24.148Z,100050.19
2023-01-30T06:42:28.256Z,100039.56
2023-01-30T06:45:31.503Z,100038.47
2023-01-30T06:48:34.904Z,100036.28
2023-01-30T06:51:37.957Z,100044.16
2023-01-30T06:54:41.584Z,100037.72
2023-01-30T06:57:46.706Z,100043.16
2023-01-30T07:00:50.772Z,100049.84
2023-01-30T07:03:54.263Z,100039.50
2023-01-30T07:06:57.640Z,100041.91
2023-01-30T07:10:07.651Z,100052.62
2023-01-30T07:13:13.119Z,100055.78
2023-01-30T07:16:16.116Z,100054.09
2023-01-30T07:19:19.347Z,100059.16
2023-01-30T07:22:22.502Z,100055.19
2023-01-30T07:25:26.949Z,100058.69
2023-01-30T07:28:29.968Z,100055.09
2023-01-30T07:31:33.213Z,100037.63
2023-01-30T07:34:37.346Z,100035.06
2023-01-30T07:37:40.708Z,100036.25
2023-01-30T07:40:44.052Z,100042.16
2023-01-30T07:43:49.124Z,100035.19
2023-01-30T07:46:52.095Z,100031.75
2023-01-30T07:49:55.101Z,100032.31
2023-01-30T07:52:58.116Z,100025.28
2023-01-30T07:56:07.684Z,100000.22
2023-01-30T07:59:13.737Z,99976.13
2023-01-30T08:02:17.282Z,99953.63
2023-01-30T08:05:20.625Z,99951.44
2023-01-30T08:08:23.519Z,99952.97
2023-01-30T08:11:26.780Z,99955.13
2023-01-30T08:14:29.879Z,99955.87
2023-01-30T08:17:33.204Z,99969.19
2023-01-30T08:20:36.569Z,99965.34
2023-01-30T08:23:39.862Z,99965.03
2023-01-30T08:26:42.815Z,99957.63
2023-01-30T08:29:47.319Z,99958.59
2023-01-30T08:32:50.368Z,99960.19
2023-01-30T08:35:56.078Z,99960.56
2023-01-30T08:38:59.873Z,99970.72
2023-01-30T08:42:03.040Z,99959.12
2023-01-30T08:45:06.639Z,99955.16
2023-01-30T08:48:10.076Z,99955.37
2023-01-30T08:51:13.093Z,99954.16
2023-01-30T08:54:16.886Z,99945.06
2023-01-30T08:57:19.811Z,99949.75
2023-01-30T09:00:23.339Z,99944.81
2023-01-30T09:03:26.298Z,99941.06
2023-01-30T09:06:29.527Z,99928.12
2023-01-30T09:09:32.545Z,99928.50
2023-01-30T09:12:35.993Z,99918.44
2023-01-30T09:15:42.542Z,99931.28
2023-01-30T09:18:46.913Z,99925.22
2023-01-30T09:21:52.156Z,99911.41
2023-01-30T09:24:55.456Z,99917.06
2023-01-30T09:28:00.026Z,99911.63
2023-01-30T09:31:04.816Z,99908.13
2023-01-30T09:34:08.314Z,99905.00
2023-01-30T09:37:12.550Z,99893.63
2023-01-30T09:40:23.352Z,99890.22
2023-01-30T09:43:54.145Z,99874.34
2023-01-30T09:47:11.929Z,99891.69
2023-01-30T09:50:21.367Z,99878.19
2023-01-30T09:53:29.599Z,99863.56
2023-01-30T09:56:32.849Z,99870.28
2023-01-30T09:59:52.153Z,99863.75
2023-01-30T10:03:15.513Z,99851.53
2023-01-30T10:06:20.477Z,99857.28
2023-01-30T10:09:30.751Z,99850.69
2023-01-30T10:12:58.738Z,99854.63
2023-01-30T10:16:14.386Z,99833.09
2023-01-30T10:19:34.637Z,99834.06
2023-01-30T10:23:02.443Z,99821.41
2023-01-30T10:26:10.981Z,99816.50
2023-01-30T10:29:39.166Z,99803.81
2023-01-30T10:32:44.784Z,99796.59
2023-01-30T10:35:47.592Z,99778.50
2023-01-30T10:38:52.535Z,99792.31
2023-01-30T10:42:19.959Z,99772.91
2023-01-30T10:45:35.175Z,99757.97
2023-01-30T10:48:51.504Z,99751.97
2023-01-30T10:52:11.918Z,99745.38
2023-01-30T10:55:37.125Z,99728.69
2023-01-30T10:59:07.846Z,99726.87
2023-01-30T11:02:36.559Z,99716.81
2023-01-30T11:05:45.725Z,99706.66
2023-01-30T11:08:48.723Z,99695.50
2023-01-30T11:11:53.572Z,99694.88
2023-01-30T11:15:01.578Z,99679.84
2023-01-30T11:18:34.175Z,99679.94
2023-01-30T11:21:43.088Z,99675.78
2023-01-30T11:24:47.066Z,99666.34
2023-01-30T11:28:01.064Z,99653.31
2023-01-30T11:31:04.746Z,99655.50
2023-01-30T11:34:16.387Z,99649.25
2023-01-30T11:37:39.604Z,99663.53
2023-01-30T11:40:42.629Z,99641.25
2023-01-30T11:43:46.004Z,99635.75
2023-01-30T11:46:49.616Z,99622.22
2023-01-30T11:50:04.735Z,99622.56
2023-01-30T11:53:47.878Z,99610.94
2023-01-30T11:56:56.158Z,99599.44
2023-01-30T12:00:00.666Z,99598.34
2023-01-30T12:03:07.000Z,99592.19
2023-01-30T12:06:10.451Z,99593.00
2023-01-30T12:09:32.246Z,99572.56
2023-01-30T12:12:45.806Z,99582.00
2023-01-30T12:15:52.967Z,99579.66
2023-01-30T12:19:02.398Z,99571.66
2023-01-30T12:22:26.850Z,99569.75
2023-01-30T12:25:35.895Z,99576.38
2023-01-30T12:28:45.049Z,99575.25
2023-01-30T12:31:52.161Z,99575.88
2023-01-30T12:34:56.179Z,99576.38
2023-01-30T12:38:24.417Z,99553.56
2023-01-30T12:41:53.082Z,99540.38
2023-01-30T12:45:04.158Z,99526.06
2023-01-30T12:48:23.094Z,99514.75
2023-01-30T12:52:07.819Z,99504.84
2023-01-30T12:55:20.643Z,99498.25
2023-01-30T12:58:43.772Z,99499.78
2023-01-30T13:02:17.975Z,99492.53
2023-01-30T13:05:45.141Z,99485.94
2023-01-30T13:08:54.148Z,99483.69
2023-01-30T13:12:14.476Z,99482.59
2023-01-30T13:15:42.075Z,99481.41
2023-01-30T13:18:54.681Z,99488.88
2023-01-30T13:22:40.333Z,99483.53
2023-01-30T13:26:03.635Z,99476.75
2023-01-30T13:29:14.173Z,99474.38
2023-01-30T13:32:25.096Z,99476.88
2023-01-30T13:35:31.507Z,99472.94
2023-01-30T13:38:41.851Z,99468.31
2023-01-30T13:41:50.495Z,99481.91
2023-01-30T13:44:55.914Z,99483.19
2023-01-30T13:48:05.053Z,99468.88
2023-01-30T13:51:17.489Z,99475.25
2023-01-30T13:54:40.704Z,99479.00
2023-01-30T13:57:53.502Z,99477.94
2023-01-30T14:00:56.770Z,99478.31
2023-01-30T14:04:40.510Z,99473.00
2023-01-30T14:07:45.336Z,99479.31
2023-01-30T14:10:49.307Z,99461.41
2023-01-30T14:13:53.767Z,99459.69
2023-01-30T14:17:08.529Z,99461.84
2023-01-30T14:20:20.371Z,99468.94
2023-01-30T14:23:31.031Z,99472.22
2023-01-30T14:26:52.424Z,99479.31
2023-01-30T14:29:56.358Z,99476.03
2023-01-30T14:33:00.822Z,99485.63
2023-01-30T14:36:07.618Z,99485.16
2023-01-30T14:39:39.393Z,99488.97
2023-01-30T14:42:44.209Z,99484.09
2023-01-30T14:45:58.995Z,99484.88
2023-01-30T14:49:19.392Z,99483.78
2023-01-30T14:52:40.847Z,99490.22
2023-01-30T14:55:44.129Z,99483.50
2023-01-30T14:58:59.714Z,99488.66
2023-01-30T15:02:15.264Z,99490.87
2023-01-30T15:05:39.547Z,99489.63
2023-01-30T15:08:44.007Z,99486.97
2023-01-30T15:12:10.802Z,99493.88
2023-01-30T15:15:13.992Z,99503.28
2023-01-30T15:19:02.849Z,99497.63
2023-01-30T15:22:49.715Z,99498.56
2023-01-30T15:26:01.824Z,99498.34
2023-01-30T15:29:05.133Z,99495.72
2023-01-30T15:32:18.605Z,99500.03
2023-01-30T15:35:24.890Z,99510.47
2023-01-30T15:38:31.623Z,99501.03
2023-01-30T15:41:42.585Z,99500.03
2023-01-30T15:45:04.536Z,99499.91
2023-01-30T15:48:35.509Z,99500.69
2023-01-30T15:51:39.355Z,99496.28
2023-01-30T15:54:49.959Z,99490.59
2023-01-30T15:57:57.862Z,99500.97
2023-01-30T16:01:02.285Z,99508.38
2023-01-30T16:04:08.164Z,99505.69
2023-01-30T16:07:24.040Z,99511.34
2023-01-30T16:10:30.202Z,99517.94
2023-01-30T16:13:35.125Z,99506.00
2023-01-30T16:16:40.279Z,99494.91
2023-01-30T16:19:44.682Z,99496.78
2023-01-30T16:22:49.613Z,99509.97
2023-01-30T16:25:55.448Z,99519.38
2023-01-30T16:29:07.636Z,99519.25
2023-01-30T16:32:15.031Z,99523.47
2023-01-30T16:35:27.161Z,99516.09
2023-01-30T16:38:38.276Z,99516.28
2023-01-30T16:41:43.762Z,99504.97
2023-01-30T16:44:47.301Z,99507.16
2023-01-30T16:47:50.738Z,99504.66
2023-01-30T16:51:00.863Z,99502.00
2023-01-30T16:54:05.278Z,99502.66
2023-01-30T16:57:41.606Z,99505.31
2023-01-30T17:00:51.132Z,99494.34
2023-01-30T17:04:00.985Z,99512.87
2023-01-30T17:07:05.145Z,99507.69
2023-01-30T17:10:28.656Z,99494.47
2023-01-30T17:13:34.149Z,99493.06
2023-01-30T17:16:39.416Z,99493.69
2023-01-30T17:19:42.759Z,99497.78
2023-01-30T17:22:48.102Z,99495.28
2023-01-30T17:25:51.914Z,99481.59
2023-01-30T17:28:55.218Z,99485.22
2023-01-30T17:32:01.136Z,99471.25
2023-01-30T17:35:05.594Z,99469.97
2023-01-30T17:38:09.722Z,99474.53
2023-01-30T17:41:21.845Z,99474.53
2023-01-30T17:44:26.250Z,99483.97
2023-01-30T17:47:29.402Z,99490.56
2023-01-30T17:50:33.999Z,99483.19
2023-01-30T17:53:38.153Z,99482.69
2023-01-30T17:56:42.809Z,99500.94
2023-01-30T17:59:48.502Z,99493.72
2023-01-30T18:02:53.912Z,99500.75
2023-01-30T18:05:58.146Z,99494.34
2023-01-30T18:09:02.063Z,99500.75
2023-01-30T18:12:07.731Z,99499.84
2023-01-30T18:15:16.428Z,99497.00
2023-01-30T18:18:20.564Z,99489.94
2023-01-30T18:21:25.269Z,99485.38
2023-01-30T18:24:33.518Z,99489.00
2023-01-30T18:27:37.058Z,99490.56
2023-01-30T18:30:42.609Z,99496.84
2023-01-30T18:33:48.524Z,99498.91
2023-01-30T18:36:55.197Z,99494.62
2023-01-30T18:39:59.823Z,99499.53
2023-01-30T18:43:04.648Z,99515.06
2023-01-30T18:46:12.994Z,99517.59
2023-01-30T18:49:17.644Z,99507.84
2023-01-30T18:52:23.838Z,99516.47
2023-01-30T18:55:28.366Z,99516.47
2023-01-30T18:58:33.158Z,99521.34
2023-01-30T19:01:40.827Z,99521.31
2023-01-30T19:04:45.299Z,99528.09
2023-01-30T19:07:49.714Z,99532.19
2023-01-30T19:10:55.060Z,99528.37
2023-01-30T19:13:59.983Z,99532.00
2023-01-30T19:17:05.243Z,99539.41
2023-01-30T19:20:12.675Z,99534.22
2023-01-30T19:23:17.407Z,99537.16
2023-01-30T19:26:24.685Z,99547.56
2023-01-30T19:29:28.995Z,99530.75
2023-01-30T19:32:36.286Z,99523.81
2023-01-30T19:35:42.550Z,99522.38
2023-01-30T19:38:50.290Z,99516.91
2023-01-30T19:41:54.583Z,99524.75
2023-01-30T19:45:00.630Z,99527.09
2023-01-30T19:48:04.751Z,99523.00
2023-01-30T19:51:22.808Z,99518.25
2023-01-30T19:54:28.180Z,99522.97
2023-01-30T19:57:33.285Z,99527.69
2023-01-30T20:00:37.808Z,99525.34
2023-01-30T20:03:43.109Z,99522.66
2023-01-30T20:06:49.803Z,99518.09
2023-01-30T20:09:54.588Z,99518.06
2023-01-30T20:12:58.341Z,99513.37
2023-01-30T20:16:11.434Z,99521.66
2023-01-30T20:19:17.624Z,99517.53
2023-01-30T20:22:23.046Z,99508.81
2023-01-30T20:25:28.369Z,99517.66
2023-01-30T20:28:34.981Z,99511.53
2023-01-30T20:31:39.915Z,99495.47
2023-01-30T20:34:46.754Z,99491.03
2023-01-30T20:37:51.368Z,99501.41
2023-01-30T20:41:05.316Z,99486.59
2023-01-30T20:44:14.198Z,99506.31
2023-01-30T20:47:19.726Z,99504.19
2023-01-30T20:50:25.117Z,99510.38
2023-01-30T20:53:31.334Z,99515.13
2023-01-30T20:56:38.285Z,99518.28
2023-01-30T20:59:43.653Z,99521.87
2023-01-30T21:02:51.810Z,99516.06
2023-01-30T21:05:57.992Z,99517.34
2023-01-30T21:09:02.489Z,99522.13
2023-01-30T21:12:07.063Z,99525.44
2023-01-30T21:15:10.519Z,99525.72
2023-01-30T21:18:13.969Z,99527.47
2023-01-30T21:21:21.836Z,99528.28
2023-01-30T21:24:29.611Z,99533.63
2023-01-30T21:27:34.089Z,99535.34
2023-01-30T21:30:39.311Z,99540.38
2023-01-30T21:33:44.292Z,99547.72
2023-01-30T21:37:06.117Z,99538.19
2023-01-30T21:40:43.015Z,99533.44
2023-01-30T21:43:48.971Z,99535.16
2023-01-30T21:46:53.723Z,99540.81
2023-01-30T21:49:57.761Z,99543.00
2023-01-30T21:53:01.994Z,99542.56
2023-01-30T21:56:05.868Z,99538.41
2023-01-30T21:59:08.949Z,99536.34
2023-01-30T22:02:12.546Z,99533.41
2023-01-30T22:05:16.123Z,99530.38
2023-01-30T22:08:20.182Z,99523.13
2023-01-30T22:11:24.068Z,99520.50
2023-01-30T22:14:27.242Z,99523.78
2023-01-30T22:17:30.718Z,99532.28
2023-01-30T22:20:33.793Z,99527.44
2023-01-30T22:23:39.583Z,99525.38
2023-01-30T22:26:44.214Z,99528.22
2023-01-30T22:29:47.806Z,99537.84
2023-01-30T22:32:55.794Z,99530.44
2023-01-30T22:36:01.240Z,99526.06
2023-01-30T22:39:05.209Z,99526.84
2023-01-30T22:42:09.028Z,99522.13
2023-01-30T22:45:12.009Z,99530.28
2023-01-30T22:48:16.774Z,99530.00
2023-01-30T22:51:25.482Z,99535.34
2023-01-30T22:54:28.799Z,99529.66
2023-01-30T22:57:31.901Z,99532.81
2023-01-30T23:00:36.179Z,99546.84
2023-01-30T23:03:40.466Z,99544.00
2023-01-30T23:06:44.736Z,99549.69
2023-01-30T23:09:48.061Z,99552.03
2023-01-30T23:13:06.623Z,99553.69
2023-01-30T23:16:10.875Z,99552.28
2023-01-30T23:19:14.129Z,99556.19
2023-01-30T23:22:17.230Z,99559.34
2023-01-30T23:25:20.895Z,99551.28
2023-01-30T23:28:24.237Z,99544.37
2023-01-30T23:31:28.514Z,99554.62
2023-01-30T23:34:31.736Z,99556.06
2023-01-30T23:37:54.013Z,99553.66
2023-01-30T23:41:08.864Z,99559.19
2023-01-30T23:44:12.526Z,99566.91
2023-01-30T23:47:15.768Z,99539.31
2023-01-30T23:50:19.141Z,99550.00
2023-01-30T23:53:22.447Z,99544.31
2023-01-30T23:56:27.765Z,99530.47
2023-01-30T23:59:30.778Z,99529.44
